Observations for CHERBOURG MAUPERTUS, France (LFRC)

LFRC 170030Z AUTO 34002KT 8000 BKN005 13/12 Q1018   
LFRC 170000Z AUTO 35003KT 8000 NSC 12/12 Q1018  
LFRC 162330Z AUTO 35003KT 6000 NSC 12/12 Q1018  
LFRC 162300Z AUTO 36004KT CAVOK 12/12 Q1018 
LFRC 162230Z AUTO 01002KT 9000 NSC 11/10 Q1018  
LFRC 162200Z AUTO 05003KT CAVOK 13/12 Q1018 
LFRC 162130Z AUTO 02004KT CAVOK 13/12 Q1018 
LFRC 162100Z AUTO 30003KT CAVOK 12/11 Q1018 
LFRC 162030Z AUTO 00000KT CAVOK 14/12 Q1018 
LFRC 162000Z AUTO 05002KT CAVOK 15/12 Q1018 
LFRC 161930Z AUTO 06001KT CAVOK 17/12 Q1018 
LFRC 161900Z AUTO 00000KT CAVOK 18/12 Q1018 
LFRC 161830Z AUTO VRB03KT CAVOK 18/12 Q1018 
LFRC 161800Z AUTO VRB03KT CAVOK 19/12 Q1018 
LFRC 161730Z AUTO 05004KT 360V090 CAVOK 19/12 Q1018 NOSIG   
LFRC 161700Z AUTO 06005KT 010V100 CAVOK 19/12 Q1018 NOSIG   
LFRC 161630Z AUTO 07005KT 040V100 CAVOK 19/12 Q1018 NOSIG   
LFRC 161600Z AUTO 05006KT 020V080 CAVOK 19/12 Q1019 NOSIG   
LFRC 161530Z AUTO 07006KT 030V110 CAVOK 19/13 Q1019 NOSIG   
LFRC 161500Z AUTO 06008KT 020V100 CAVOK 19/12 Q1019 NOSIG   
LFRC 161430Z AUTO 06008KT 020V090 CAVOK 19/13 Q1019 NOSIG   
LFRC 161400Z AUTO 05008KT 010V080 CAVOK 19/13 Q1019 NOSIG   
LFRC 161330Z AUTO 06008KT 020V110 9999 FEW023 20/13 Q1019 NOSIG 
LFRC 161300Z AUTO 06008KT 020V100 9999 FEW022 19/14 Q1019 NOSIG 
LFRC 161230Z AUTO 06009KT 030V100 9999 BKN021 19/13 Q1019 NOSIG 
LFRC 161200Z AUTO 06010KT 040V100 9999 SCT023 19/14 Q1019 NOSIG 
LFRC 161130Z AUTO 07009KT 040V110 9999 BKN022 19/14 Q1019 NOSIG 
LFRC 161100Z AUTO 06009KT 030V090 9999 BKN018 19/14 Q1019 NOSIG 
LFRC 161030Z AUTO 05009KT 020V080 9999 BKN019 BKN025 18/14 Q1020 NOSIG  
LFRC 161000Z AUTO 05008KT 9999 BKN016 BKN023 18/14 Q1019 NOSIG  
LFRC 160930Z AUTO 06009KT 9999 BKN016 BKN021 BKN026 18/14 Q1019 NOSIG   
LFRC 160900Z AUTO 06007KT 020V090 9999 BKN014 BKN021 17/13 Q1020 BECMG SCT020   
LFRC 160830Z AUTO 08007KT 050V110 9999 BKN014 BKN027 18/14 Q1020 BECMG SCT020   
LFRC 160800Z AUTO 07007KT 040V100 9999 FEW013 17/14 Q1020 NOSIG 
LFRC 160730Z AUTO 08006KT 040V110 9999 BKN014 17/13 Q1020 BECMG BKN020  
LFRC 160700Z AUTO 07006KT 9999 BKN012 16/13 Q1020 TEMPO 3000 BR BECMG BKN020
LFRC 160630Z AUTO 08005KT 9000 FEW010 15/14 Q1020 TEMPO 3000 BR BKN009  
LFRC 160600Z AUTO 06003KT 7000 NSC 14/14 Q1020 TEMPO 3000 BR BKN009 
LFRC 160530Z AUTO 00000KT 7000 NSC 14/14 Q1020 TEMPO 3000 BR BKN009 
LFRC 160500Z AUTO 00000KT 4000 BR NSC 13/13 Q1020   
LFRC 160430Z AUTO 00000KT 8000 FEW010 12/12 Q1020   
LFRC 160400Z AUTO 00000KT 6000 SCT009 13/12 Q1020   
LFRC 160330Z AUTO 00000KT 7000 BKN009 BKN013 13/12 Q1020
LFRC 160300Z AUTO 00000KT 8000 BKN009 12/12 Q1020   
LFRC 160230Z AUTO 00000KT 5000 BR BKN009 12/12 Q1020
LFRC 160200Z AUTO 07004KT 6000 FEW008 12/12 Q1020   
LFRC 160130Z AUTO 08002KT 9000 NSC 12/12 Q1020  
LFRC 160100Z AUTO 09004KT CAVOK 12/11 Q1021 
LFRC 160030Z AUTO 08004KT 9999 FEW011 12/11 Q1021   
LFRC 160000Z AUTO 00000KT CAVOK 12/11 Q1021